Time,TemperatureF,DewpointF,PressureIn,WindDirection,WindDirectionDegrees,WindSpeedMPH,WindSpeedGustMPH,Humidity,HourlyPrecipIn,Conditions,Clouds,dailyrainin,SoftwareType,DateUTC
2013-03-14 00:14:00,35.2,29.0,29.85,NW,321,1.0,5.0,77,0.00,,,0.00,weatherlink.com 1.10,2013-03-14 04:14:00,
2013-03-14 00:29:00,35.0,29.0,29.85,NW,321,0.0,3.0,79,0.00,,,0.00,weatherlink.com 1.10,2013-03-14 04:29:00,
2013-03-14 00:45:00,34.4,29.0,29.84,NNW,331,2.0,3.0,80,0.00,,,0.00,weatherlink.com 1.10,2013-03-14 04:45:00,
2013-03-14 01:00:00,35.0,29.0,29.84,NW,309,2.0,4.0,79,0.00,,,0.00,weatherlink.com 1.10,2013-03-14 05:00:00,
2013-03-14 01:15:00,35.0,29.0,29.84,NW,322,3.0,8.0,78,0.00,,,0.00,weatherlink.com 1.10,2013-03-14 05:15:00,
2013-03-14 01:30:00,35.0,29.0,29.84,NNW,339,0.0,2.0,79,0.00,,,0.00,weatherlink.com 1.10,2013-03-14 05:30:00,
2013-03-14 01:45:00,35.0,29.0,29.85,NW,322,11.0,16.0,79,0.00,,,0.00,weatherlink.com 1.10,2013-03-14 05:45:00,
2013-03-14 02:00:00,34.5,30.0,29.86,WSW,252,5.0,13.0,83,0.00,,,0.00,weatherlink.com 1.10,2013-03-14 06:00:00,
2013-03-14 02:15:00,33.1,27.0,29.86,WSW,252,4.0,14.0,79,0.00,,,0.00,weatherlink.com 1.10,2013-03-14 06:15:00,
2013-03-14 02:30:00,32.9,26.0,29.86,NNW,348,9.0,16.0,75,0.00,,,0.00,weatherlink.com 1.10,2013-03-14 06:30:00,
2013-03-14 02:45:00,32.7,25.0,29.86,NW,323,4.0,15.0,74,0.00,,,0.00,weatherlink.com 1.10,2013-03-14 06:45:00,
2013-03-14 03:00:00,32.6,24.0,29.85,South,188,2.0,16.0,72,0.00,,,0.00,weatherlink.com 1.10,2013-03-14 07:00:00,
2013-03-14 03:15:00,32.5,24.0,29.85,NW,311,2.0,8.0,71,0.00,,,0.00,weatherlink.com 1.10,2013-03-14 07:15:00,
2013-03-14 03:30:00,32.4,23.0,29.85,NW,325,8.0,13.0,68,0.00,,,0.00,weatherlink.com 1.10,2013-03-14 07:30:00,
2013-03-14 03:45:00,32.5,22.0,29.85,WNW,292,5.0,10.0,66,0.00,,,0.00,weatherlink.com 1.10,2013-03-14 07:45:00,
2013-03-14 04:00:00,32.4,21.0,29.85,South,178,4.0,15.0,64,0.00,,,0.00,weatherlink.com 1.10,2013-03-14 08:00:00,
2013-03-14 04:15:00,32.3,20.0,29.85,NW,304,4.0,13.0,60,0.00,,,0.00,weatherlink.com 1.10,2013-03-14 08:15:00,
2013-03-14 04:30:00,32.1,20.0,29.84,West,264,1.0,7.0,62,0.00,,,0.00,weatherlink.com 1.10,2013-03-14 08:30:00,
2013-03-14 04:45:00,31.7,20.0,29.84,NW,304,5.0,12.0,63,0.00,,,0.00,weatherlink.com 1.10,2013-03-14 08:45:00,
2013-03-14 05:00:00,31.3,20.0,29.84,North,351,10.0,12.0,63,0.00,,,0.00,weatherlink.com 1.10,2013-03-14 09:00:00,
2013-03-14 05:15:00,30.8,19.0,29.84,North,360,4.0,14.0,62,0.00,,,0.00,weatherlink.com 1.10,2013-03-14 09:15:00,
2013-03-14 05:30:00,30.5,18.0,29.85,WNW,301,3.0,10.0,61,0.00,,,0.00,weatherlink.com 1.10,2013-03-14 09:30:00,
2013-03-14 05:45:00,30.1,17.0,29.86,ESE,114,3.0,16.0,59,0.00,,,0.00,weatherlink.com 1.10,2013-03-14 09:45:00,
2013-03-14 06:00:00,29.8,16.0,29.86,North,355,6.0,16.0,57,0.00,,,0.00,weatherlink.com 1.10,2013-03-14 10:00:00,
2013-03-14 06:15:00,29.5,16.0,29.86,NNE,17,2.0,14.0,57,0.00,,,0.00,weatherlink.com 1.10,2013-03-14 10:15:00,
2013-03-14 06:30:00,29.2,16.0,29.86,NNW,346,9.0,15.0,58,0.00,,,0.00,weatherlink.com 1.10,2013-03-14 10:30:00,
2013-03-14 06:45:00,29.0,15.0,29.86,ENE,62,1.0,9.0,57,0.00,,,0.00,weatherlink.com 1.10,2013-03-14 10:45:00,
2013-03-14 07:00:00,28.8,16.0,29.87,WSW,256,3.0,11.0,58,0.00,,,0.00,weatherlink.com 1.10,2013-03-14 11:00:00,
2013-03-14 07:15:00,28.7,16.0,29.87,SW,235,7.0,8.0,59,0.00,,,0.00,weatherlink.com 1.10,2013-03-14 11:15:00,
2013-03-14 07:30:00,28.8,17.0,29.88,West,279,4.0,7.0,61,0.00,,,0.00,weatherlink.com 1.10,2013-03-14 11:30:00,
2013-03-14 07:45:00,28.8,17.0,29.88,West,268,13.0,13.0,62,0.00,,,0.00,weatherlink.com 1.10,2013-03-14 11:45:00,
2013-03-14 08:00:00,28.5,16.0,29.89,NNW,336,10.0,15.0,59,0.00,,,0.00,weatherlink.com 1.10,2013-03-14 12:00:00,
2013-03-14 08:16:00,28.1,15.0,29.89,NNE,21,5.0,18.0,59,0.00,,,0.00,weatherlink.com 1.10,2013-03-14 12:16:00,
2013-03-14 08:31:00,27.6,14.0,29.90,South,169,10.0,19.0,57,0.00,,,0.00,weatherlink.com 1.10,2013-03-14 12:31:00,
2013-03-14 08:46:00,26.9,11.0,29.91,West,261,11.0,16.0,52,0.00,,,0.00,weatherlink.com 1.10,2013-03-14 12:46:00,
2013-03-14 09:01:00,26.6,11.0,29.91,NW,311,9.0,14.0,52,0.00,,,0.00,weatherlink.com 1.10,2013-03-14 13:01:00,
2013-03-14 09:46:00,27.4,12.0,29.91,West,273,4.0,12.0,53,0.00,,,0.00,weatherlink.com 1.10,2013-03-14 13:46:00,
2013-03-14 10:01:00,27.6,11.0,29.92,NW,318,9.0,20.0,50,0.00,,,0.00,weatherlink.com 1.10,2013-03-14 14:01:00,
2013-03-14 10:16:00,27.2,12.0,29.91,North,350,5.0,17.0,52,0.00,,,0.00,weatherlink.com 1.10,2013-03-14 14:16:00,
2013-03-14 10:31:00,28.1,11.0,29.91,WSW,248,9.0,16.0,48,0.00,,,0.00,weatherlink.com 1.10,2013-03-14 14:31:00,
2013-03-14 11:16:00,29.3,11.0,29.90,WNW,282,10.0,18.0,47,0.00,,,0.00,weatherlink.com 1.10,2013-03-14 15:16:00,
2013-03-14 11:31:00,30.3,13.0,29.90,SW,236,3.0,12.0,48,0.00,,,0.00,weatherlink.com 1.10,2013-03-14 15:31:00,
2013-03-14 12:01:00,30.7,12.0,29.89,WNW,284,6.0,15.0,46,0.00,,,0.00,weatherlink.com 1.10,2013-03-14 16:01:00,
2013-03-14 12:16:00,30.6,12.0,29.89,WNW,284,7.0,20.0,47,0.00,,,0.00,weatherlink.com 1.10,2013-03-14 16:16:00,
2013-03-14 12:31:00,30.2,14.0,29.89,NW,319,6.0,15.0,51,0.00,,,0.00,weatherlink.com 1.10,2013-03-14 16:31:00,
2013-03-14 12:46:00,30.7,15.0,29.89,WNW,296,7.0,21.0,52,0.00,,,0.00,weatherlink.com 1.10,2013-03-14 16:46:00,
2013-03-14 13:01:00,31.0,15.0,29.88,WSW,248,5.0,20.0,51,0.00,,,0.00,weatherlink.com 1.10,2013-03-14 17:01:00,
2013-03-14 13:16:00,31.0,15.0,29.88,WNW,296,11.0,21.0,52,0.00,,,0.00,weatherlink.com 1.10,2013-03-14 17:16:00,
2013-03-14 13:32:00,30.9,15.0,29.87,South,178,1.0,16.0,51,0.00,,,0.00,weatherlink.com 1.10,2013-03-14 17:32:00,
2013-03-14 14:01:00,31.3,14.0,29.87,East,86,2.0,17.0,50,0.00,,,0.00,weatherlink.com 1.10,2013-03-14 18:01:00,
2013-03-14 14:16:00,31.2,15.0,29.87,NW,307,4.0,16.0,51,0.00,,,0.00,weatherlink.com 1.10,2013-03-14 18:16:00,
2013-03-14 14:31:00,31.6,16.0,29.86,NNW,341,12.0,21.0,52,0.00,,,0.00,weatherlink.com 1.10,2013-03-14 18:31:00,
2013-03-14 14:46:00,33.3,15.0,29.85,North,355,8.0,18.0,47,0.00,,,0.00,weatherlink.com 1.10,2013-03-14 18:46:00,
2013-03-14 15:01:00,34.6,15.0,29.85,NNW,331,2.0,13.0,45,0.00,,,0.00,weatherlink.com 1.10,2013-03-14 19:01:00,
2013-03-14 15:16:00,33.0,14.0,29.86,NW,306,8.0,18.0,46,0.00,,,0.00,weatherlink.com 1.10,2013-03-14 19:16:00,
2013-03-14 15:31:00,34.0,16.0,29.85,WNW,302,8.0,16.0,48,0.00,,,0.00,weatherlink.com 1.10,2013-03-14 19:31:00,
2013-03-14 15:46:00,33.9,15.0,29.85,West,261,0.0,20.0,46,0.00,,,0.00,weatherlink.com 1.10,2013-03-14 19:46:00,
2013-03-14 16:01:00,34.1,15.0,29.84,North,355,10.0,17.0,45,0.00,,,0.00,weatherlink.com 1.10,2013-03-14 20:01:00,
2013-03-14 16:16:00,33.8,15.0,29.84,NW,323,5.0,13.0,47,0.00,,,0.00,weatherlink.com 1.10,2013-03-14 20:16:00,
2013-03-14 16:31:00,34.3,14.0,29.84,WSW,244,2.0,18.0,44,0.00,,,0.00,weatherlink.com 1.10,2013-03-14 20:31:00,
2013-03-14 16:46:00,33.2,14.0,29.85,NW,316,5.0,23.0,46,0.00,,,0.00,weatherlink.com 1.10,2013-03-14 20:46:00,
2013-03-14 17:01:00,32.8,15.0,29.85,NNW,344,4.0,14.0,49,0.00,,,0.00,weatherlink.com 1.10,2013-03-14 21:01:00,
2013-03-14 17:31:00,32.8,15.0,29.86,WSW,253,15.0,17.0,48,0.00,,,0.00,weatherlink.com 1.10,2013-03-14 21:31:00,
2013-03-14 17:46:00,32.8,15.0,29.85,NW,316,4.0,11.0,49,0.00,,,0.00,weatherlink.com 1.10,2013-03-14 21:46:00,
2013-03-14 18:01:00,32.4,15.0,29.85,SW,216,6.0,11.0,48,0.00,,,0.00,weatherlink.com 1.10,2013-03-14 22:01:00,
2013-03-14 18:16:00,32.3,14.0,29.86,NNW,330,3.0,7.0,47,0.00,,,0.00,weatherlink.com 1.10,2013-03-14 22:16:00,
2013-03-14 18:31:00,32.1,14.0,29.86,NW,325,3.0,8.0,48,0.00,,,0.00,weatherlink.com 1.10,2013-03-14 22:31:00,
2013-03-14 18:46:00,32.0,15.0,29.86,NW,321,5.0,8.0,49,0.00,,,0.00,weatherlink.com 1.10,2013-03-14 22:46:00,
2013-03-14 19:01:00,31.9,15.0,29.87,NNW,343,3.0,6.0,49,0.00,,,0.00,weatherlink.com 1.10,2013-03-14 23:01:00,
2013-03-14 19:16:00,31.7,16.0,29.88,NNE,13,4.0,6.0,52,0.00,,,0.00,weatherlink.com 1.10,2013-03-14 23:16:00,
2013-03-14 19:31:00,31.1,16.0,29.88,NNW,342,3.0,10.0,53,0.00,,,0.00,weatherlink.com 1.10,2013-03-14 23:31:00,
2013-03-14 19:46:00,30.9,17.0,29.89,North,355,1.0,6.0,56,0.00,,,0.00,weatherlink.com 1.10,2013-03-14 23:46:00,
2013-03-14 20:01:00,30.4,17.0,29.90,NW,323,3.0,9.0,59,0.00,,,0.00,weatherlink.com 1.10,2013-03-15 00:01:00,
2013-03-14 20:16:00,30.1,17.0,29.90,NW,312,2.0,11.0,59,0.00,,,0.00,weatherlink.com 1.10,2013-03-15 00:16:00,
2013-03-14 20:31:00,30.1,17.0,29.91,NW,325,5.0,9.0,58,0.00,,,0.00,weatherlink.com 1.10,2013-03-15 00:31:00,
2013-03-14 20:46:00,30.2,17.0,29.91,North,355,2.0,9.0,59,0.00,,,0.00,weatherlink.com 1.10,2013-03-15 00:46:00,
2013-03-14 21:01:00,30.3,16.0,29.91,NNW,336,2.0,10.0,56,0.00,,,0.00,weatherlink.com 1.10,2013-03-15 01:01:00,
2013-03-14 21:16:00,30.4,16.0,29.91,NW,306,2.0,8.0,55,0.00,,,0.00,weatherlink.com 1.10,2013-03-15 01:16:00,
2013-03-14 21:46:00,31.1,12.0,29.91,NW,311,8.0,18.0,45,0.00,,,0.00,weatherlink.com 1.10,2013-03-15 01:46:00,
2013-03-14 22:01:00,31.2,11.0,29.91,NNE,13,3.0,8.0,43,0.00,,,0.00,weatherlink.com 1.10,2013-03-15 02:01:00,
2013-03-14 22:16:00,31.2,11.0,29.92,NW,321,6.0,11.0,44,0.00,,,0.00,weatherlink.com 1.10,2013-03-15 02:16:00,
2013-03-14 22:31:00,31.2,10.0,29.92,SW,236,5.0,12.0,42,0.00,,,0.00,weatherlink.com 1.10,2013-03-15 02:31:00,
2013-03-14 22:47:00,31.1,11.0,29.92,WSW,238,0.0,12.0,43,0.00,,,0.00,weatherlink.com 1.10,2013-03-15 02:47:00,
2013-03-14 23:01:00,31.1,11.0,29.92,NW,324,10.0,16.0,43,0.00,,,0.00,weatherlink.com 1.10,2013-03-15 03:01:00,
2013-03-14 23:16:00,31.0,11.0,29.93,WNW,287,5.0,16.0,44,0.00,,,0.00,weatherlink.com 1.10,2013-03-15 03:16:00,
2013-03-14 23:31:00,31.0,11.0,29.93,NW,304,3.0,11.0,44,0.00,,,0.00,weatherlink.com 1.10,2013-03-15 03:31:00,
2013-03-14 23:46:00,30.9,11.0,29.93,WNW,295,4.0,15.0,44,0.00,,,0.00,weatherlink.com 1.10,2013-03-15 03:46:00,